sensor_id;sensor_type;location;lat;lon;timestamp;pressure;altitude;pressure_sealevel;temperature;humidity
11184;BME280;5648;43.628;22.684;2022-10-16T00:00:41;95968.81;;;8.38;100.00
11184;BME280;5648;43.628;22.684;2022-10-16T00:03:08;95977.97;;;8.50;100.00
11184;BME280;5648;43.628;22.684;2022-10-16T00:05:39;95975.97;;;8.52;100.00
11184;BME280;5648;43.628;22.684;2022-10-16T00:08:05;95983.53;;;8.55;100.00
11184;BME280;5648;43.628;22.684;2022-10-16T00:10:31;95984.53;;;8.54;100.00
11184;BME280;5648;43.628;22.684;2022-10-16T00:12:56;95984.72;;;8.44;100.00
11184;BME280;5648;43.628;22.684;2022-10-16T00:15:22;95977.81;;;8.43;100.00
11184;BME280;5648;43.628;22.684;2022-10-16T00:17:50;95985.69;;;8.51;100.00
11184;BME280;5648;43.628;22.684;2022-10-16T00:20:16;95989.19;;;8.44;100.00
11184;BME280;5648;43.628;22.684;2022-10-16T00:22:41;95990.00;;;8.44;100.00
11184;BME280;5648;43.628;22.684;2022-10-16T00:25:07;95987.34;;;8.52;100.00
11184;BME280;5648;43.628;22.684;2022-10-16T00:27:33;95976.44;;;8.55;100.00
11184;BME280;5648;43.628;22.684;2022-10-16T00:29:59;95974.81;;;8.54;100.00
11184;BME280;5648;43.628;22.684;2022-10-16T00:32:24;95971.53;;;8.52;100.00
11184;BME280;5648;43.628;22.684;2022-10-16T00:34:50;95967.44;;;8.42;100.00
11184;BME280;5648;43.628;22.684;2022-10-16T00:37:16;95980.63;;;8.42;100.00
11184;BME280;5648;43.628;22.684;2022-10-16T00:39:41;95977.50;;;8.46;100.00
11184;BME280;5648;43.628;22.684;2022-10-16T00:42:19;95972.94;;;8.32;100.00
11184;BME280;5648;43.628;22.684;2022-10-16T00:47:28;95972.06;;;8.40;100.00
11184;BME280;5648;43.628;22.684;2022-10-16T00:50:47;95979.97;;;8.48;100.00
11184;BME280;5648;43.628;22.684;2022-10-16T00:53:08;95977.50;;;8.46;100.00
11184;BME280;5648;43.628;22.684;2022-10-16T00:55:34;95970.09;;;8.42;100.00
11184;BME280;5648;43.628;22.684;2022-10-16T00:58:00;95966.47;;;8.43;100.00
11184;BME280;5648;43.628;22.684;2022-10-16T01:00:26;95974.53;;;8.41;100.00
11184;BME280;5648;43.628;22.684;2022-10-16T01:02:53;95977.50;;;8.46;100.00
11184;BME280;5648;43.628;22.684;2022-10-16T01:05:23;95973.38;;;8.44;100.00
11184;BME280;5648;43.628;22.684;2022-10-16T01:08:01;95983.91;;;8.44;100.00
11184;BME280;5648;43.628;22.684;2022-10-16T01:10:39;95981.81;;;8.39;100.00
11184;BME280;5648;43.628;22.684;2022-10-16T01:13:08;95971.66;;;8.20;100.00
11184;BME280;5648;43.628;22.684;2022-10-16T01:21:22;95982.66;;;8.23;100.00
11184;BME280;5648;43.628;22.684;2022-10-16T01:27:14;95982.13;;;8.28;100.00
11184;BME280;5648;43.628;22.684;2022-10-16T01:32:40;95985.66;;;8.12;100.00
11184;BME280;5648;43.628;22.684;2022-10-16T01:37:44;95989.44;;;8.18;100.00
11184;BME280;5648;43.628;22.684;2022-10-16T01:40:12;95992.41;;;8.15;100.00
11184;BME280;5648;43.628;22.684;2022-10-16T01:42:48;95985.94;;;8.25;100.00
11184;BME280;5648;43.628;22.684;2022-10-16T01:45:17;95981.38;;;8.19;100.00
11184;BME280;5648;43.628;22.684;2022-10-16T01:47:45;95989.63;;;8.08;100.00
11184;BME280;5648;43.628;22.684;2022-10-16T01:50:12;95990.75;;;8.14;100.00
11184;BME280;5648;43.628;22.684;2022-10-16T01:52:42;95989.94;;;8.13;100.00
11184;BME280;5648;43.628;22.684;2022-10-16T01:55:12;95999.97;;;8.18;100.00
11184;BME280;5648;43.628;22.684;2022-10-16T01:57:42;96004.91;;;8.21;100.00
11184;BME280;5648;43.628;22.684;2022-10-16T02:00:12;96001.28;;;8.14;100.00
11184;BME280;5648;43.628;22.684;2022-10-16T02:02:41;96003.97;;;8.06;100.00
11184;BME280;5648;43.628;22.684;2022-10-16T02:07:41;96006.25;;;8.09;100.00
11184;BME280;5648;43.628;22.684;2022-10-16T02:10:08;96007.56;;;8.13;100.00
11184;BME280;5648;43.628;22.684;2022-10-16T02:12:37;96015.44;;;8.13;100.00
11184;BME280;5648;43.628;22.684;2022-10-16T02:15:05;96008.72;;;8.10;100.00
11184;BME280;5648;43.628;22.684;2022-10-16T02:17:31;96005.13;;;8.03;100.00
11184;BME280;5648;43.628;22.684;2022-10-16T02:19:58;96006.94;;;8.02;100.00
11184;BME280;5648;43.628;22.684;2022-10-16T02:22:32;96015.16;;;8.08;100.00
11184;BME280;5648;43.628;22.684;2022-10-16T02:25:05;96012.53;;;7.99;100.00
11184;BME280;5648;43.628;22.684;2022-10-16T02:27:53;96019.94;;;8.04;100.00
11184;BME280;5648;43.628;22.684;2022-10-16T02:32:49;96009.72;;;8.01;100.00
11184;BME280;5648;43.628;22.684;2022-10-16T02:35:18;96028.97;;;8.10;100.00
11184;BME280;5648;43.628;22.684;2022-10-16T02:37:45;96024.53;;;8.10;100.00
11184;BME280;5648;43.628;22.684;2022-10-16T02:40:12;96020.41;;;8.08;100.00
11184;BME280;5648;43.628;22.684;2022-10-16T02:42:39;96018.31;;;8.03;100.00
11184;BME280;5648;43.628;22.684;2022-10-16T02:45:07;96021.25;;;8.08;100.00
11184;BME280;5648;43.628;22.684;2022-10-16T02:47:33;96028.50;;;8.06;100.00
11184;BME280;5648;43.628;22.684;2022-10-16T02:49:59;96026.03;;;8.04;100.00
11184;BME280;5648;43.628;22.684;2022-10-16T02:52:25;96014.00;;;8.02;100.00
11184;BME280;5648;43.628;22.684;2022-10-16T02:54:50;96013.66;;;8.13;100.00
11184;BME280;5648;43.628;22.684;2022-10-16T02:57:16;96014.00;;;8.02;100.00
11184;BME280;5648;43.628;22.684;2022-10-16T02:59:42;96018.97;;;7.97;100.00
11184;BME280;5648;43.628;22.684;2022-10-16T03:02:07;96018.97;;;7.97;100.00
11184;BME280;5648;43.628;22.684;2022-10-16T03:04:33;96025.50;;;8.09;100.00
11184;BME280;5648;43.628;22.684;2022-10-16T03:06:58;96017.97;;;8.06;100.00
11184;BME280;5648;43.628;22.684;2022-10-16T03:09:24;96029.63;;;8.12;100.00
11184;BME280;5648;43.628;22.684;2022-10-16T03:11:49;96035.25;;;8.00;100.00
11184;BME280;5648;43.628;22.684;2022-10-16T03:14:15;96041.50;;;8.08;100.00
11184;BME280;5648;43.628;22.684;2022-10-16T03:16:40;96030.97;;;8.08;100.00
11184;BME280;5648;43.628;22.684;2022-10-16T03:19:31;96036.22;;;8.08;100.00
11184;BME280;5648;43.628;22.684;2022-10-16T03:21:56;96035.41;;;8.07;100.00
11184;BME280;5648;43.628;22.684;2022-10-16T03:24:22;96036.06;;;8.01;100.00
11184;BME280;5648;43.628;22.684;2022-10-16T03:26:48;96042.81;;;7.95;100.00
11184;BME280;5648;43.628;22.684;2022-10-16T03:29:13;96046.28;;;8.04;100.00
11184;BME280;5648;43.628;22.684;2022-10-16T03:31:39;96049.91;;;8.03;100.00
11184;BME280;5648;43.628;22.684;2022-10-16T03:34:04;96046.63;;;7.93;100.00
11184;BME280;5648;43.628;22.684;2022-10-16T03:36:29;96042.16;;;8.01;100.00
11184;BME280;5648;43.628;22.684;2022-10-16T03:38:55;96043.34;;;7.91;100.00
11184;BME280;5648;43.628;22.684;2022-10-16T03:41:20;96036.09;;;7.93;100.00
11184;BME280;5648;43.628;22.684;2022-10-16T03:43:46;96033.13;;;7.96;100.00
11184;BME280;5648;43.628;22.684;2022-10-16T03:46:11;96040.69;;;7.99;100.00
11184;BME280;5648;43.628;22.684;2022-10-16T03:48:37;96042.00;;;7.95;100.00
11184;BME280;5648;43.628;22.684;2022-10-16T03:51:02;96044.47;;;7.96;100.00
11184;BME280;5648;43.628;22.684;2022-10-16T03:53:28;96046.13;;;7.97;100.00
11184;BME280;5648;43.628;22.684;2022-10-16T03:55:53;96052.03;;;7.99;100.00
11184;BME280;5648;43.628;22.684;2022-10-16T03:58:19;96047.75;;;7.98;100.00
11184;BME280;5648;43.628;22.684;2022-10-16T04:00:46;96056.81;;;7.96;100.00
11184;BME280;5648;43.628;22.684;2022-10-16T04:03:13;96065.22;;;7.91;100.00
11184;BME280;5648;43.628;22.684;2022-10-16T04:05:38;96055.00;;;7.96;100.00
11184;BME280;5648;43.628;22.684;2022-10-16T04:08:04;96061.09;;;7.97;100.00
11184;BME280;5648;43.628;22.684;2022-10-16T04:10:30;96057.63;;;7.96;100.00
11184;BME280;5648;43.628;22.684;2022-10-16T04:12:55;96069.16;;;7.95;100.00
11184;BME280;5648;43.628;22.684;2022-10-16T04:15:22;96053.72;;;7.84;100.00
11184;BME280;5648;43.628;22.684;2022-10-16T04:17:48;96058.78;;;7.86;100.00
11184;BME280;5648;43.628;22.684;2022-10-16T04:20:13;96050.09;;;7.77;100.00
11184;BME280;5648;43.628;22.684;2022-10-16T04:22:39;96064.06;;;7.86;100.00
11184;BME280;5648;43.628;22.684;2022-10-16T04:25:04;96067.84;;;7.83;100.00
11184;BME280;5648;43.628;22.684;2022-10-16T04:27:30;96070.16;;;7.86;100.00
11184;BME280;5648;43.628;22.684;2022-10-16T04:29:57;96074.28;;;7.89;100.00
11184;BME280;5648;43.628;22.684;2022-10-16T04:32:23;96065.22;;;7.83;100.00
11184;BME280;5648;43.628;22.684;2022-10-16T04:34:48;96072.78;;;7.86;100.00
11184;BME280;5648;43.628;22.684;2022-10-16T04:37:13;96068.69;;;7.84;100.00
11184;BME280;5648;43.628;22.684;2022-10-16T04:39:39;96080.03;;;7.92;100.00
11184;BME280;5648;43.628;22.684;2022-10-16T04:42:05;96069.84;;;7.89;100.00
11184;BME280;5648;43.628;22.684;2022-10-16T04:44:30;96064.25;;;7.92;100.00
11184;BME280;5648;43.628;22.684;2022-10-16T04:46:56;96068.03;;;7.90;100.00
11184;BME280;5648;43.628;22.684;2022-10-16T04:49:21;96068.84;;;7.82;100.00
11184;BME280;5648;43.628;22.684;2022-10-16T04:51:47;96074.59;;;7.94;100.00
11184;BME280;5648;43.628;22.684;2022-10-16T04:54:12;96081.81;;;8.00;100.00
11184;BME280;5648;43.628;22.684;2022-10-16T04:56:38;96076.88;;;7.97;100.00
11184;BME280;5648;43.628;22.684;2022-10-16T04:59:13;96073.47;;;7.88;100.00
11184;BME280;5648;43.628;22.684;2022-10-16T05:01:38;96079.69;;;7.95;100.00
11184;BME280;5648;43.628;22.684;2022-10-16T05:04:04;96087.59;;;7.87;100.00
11184;BME280;5648;43.628;22.684;2022-10-16T05:06:29;96084.81;;;7.89;100.00
11184;BME280;5648;43.628;22.684;2022-10-16T05:08:55;96089.88;;;7.98;100.00
11184;BME280;5648;43.628;22.684;2022-10-16T05:11:20;96101.25;;;7.99;100.00
11184;BME280;5648;43.628;22.684;2022-10-16T05:13:46;96084.13;;;7.95;100.00
11184;BME280;5648;43.628;22.684;2022-10-16T05:16:11;96103.88;;;7.99;100.00
11184;BME280;5648;43.628;22.684;2022-10-16T05:18:37;96091.03;;;7.88;100.00
11184;BME280;5648;43.628;22.684;2022-10-16T05:21:27;96110.94;;;7.98;100.00
11184;BME280;5648;43.628;22.684;2022-10-16T05:23:54;96110.31;;;8.04;100.00
11184;BME280;5648;43.628;22.684;2022-10-16T05:26:20;96102.75;;;7.93;100.00
11184;BME280;5648;43.628;22.684;2022-10-16T05:28:46;96103.38;;;8.03;100.00
11184;BME280;5648;43.628;22.684;2022-10-16T05:31:11;96114.22;;;8.00;100.00
11184;BME280;5648;43.628;22.684;2022-10-16T05:33:37;96119.84;;;7.97;100.00
11184;BME280;5648;43.628;22.684;2022-10-16T05:36:06;96120.81;;;8.13;100.00
11184;BME280;5648;43.628;22.684;2022-10-16T05:38:33;96120.97;;;8.11;100.00
11184;BME280;5648;43.628;22.684;2022-10-16T05:40:59;96119.50;;;8.09;100.00
11184;BME280;5648;43.628;22.684;2022-10-16T05:43:27;96122.13;;;8.17;100.00
11184;BME280;5648;43.628;22.684;2022-10-16T05:46:05;96119.34;;;8.18;100.00
11184;BME280;5648;43.628;22.684;2022-10-16T05:48:31;96125.25;;;8.20;100.00
11184;BME280;5648;43.628;22.684;2022-10-16T05:51:05;96127.03;;;8.28;100.00
11184;BME280;5648;43.628;22.684;2022-10-16T05:53:33;96129.69;;;8.20;100.00
11184;BME280;5648;43.628;22.684;2022-10-16T05:55:59;96116.34;;;8.21;100.00
11184;BME280;5648;43.628;22.684;2022-10-16T05:58:25;96128.53;;;8.22;100.00
11184;BME280;5648;43.628;22.684;2022-10-16T06:00:57;96140.22;;;8.36;100.00
11184;BME280;5648;43.628;22.684;2022-10-16T06:03:23;96144.00;;;8.33;100.00
11184;BME280;5648;43.628;22.684;2022-10-16T06:05:50;96141.88;;;8.37;100.00
11184;BME280;5648;43.628;22.684;2022-10-16T06:08:15;96138.41;;;8.37;100.00
11184;BME280;5648;43.628;22.684;2022-10-16T06:10:41;96129.34;;;8.31;100.00
11184;BME280;5648;43.628;22.684;2022-10-16T06:13:32;96143.50;;;8.46;100.00
11184;BME280;5648;43.628;22.684;2022-10-16T06:16:24;96139.84;;;8.55;100.00
11184;BME280;5648;43.628;22.684;2022-10-16T06:18:51;96152.03;;;8.56;100.00
11184;BME280;5648;43.628;22.684;2022-10-16T06:21:22;96155.19;;;8.52;100.00
11184;BME280;5648;43.628;22.684;2022-10-16T06:23:50;96156.63;;;8.62;100.00
11184;BME280;5648;43.628;22.684;2022-10-16T06:26:18;96150.69;;;8.69;100.00
11184;BME280;5648;43.628;22.684;2022-10-16T06:28:44;96165.03;;;8.66;100.00
11184;BME280;5648;43.628;22.684;2022-10-16T06:31:10;96152.81;;;8.73;100.00
11184;BME280;5648;43.628;22.684;2022-10-16T06:33:37;96159.88;;;8.81;100.00
11184;BME280;5648;43.628;22.684;2022-10-16T06:36:08;96172.88;;;8.82;100.00
11184;BME280;5648;43.628;22.684;2022-10-16T06:38:34;96178.63;;;8.86;100.00
11184;BME280;5648;43.628;22.684;2022-10-16T06:41:00;96169.69;;;8.95;100.00
11184;BME280;5648;43.628;22.684;2022-10-16T06:43:26;96170.72;;;8.86;100.00
11184;BME280;5648;43.628;22.684;2022-10-16T06:45:54;96177.25;;;8.98;100.00
11184;BME280;5648;43.628;22.684;2022-10-16T06:48:20;96172.78;;;9.07;100.00
11184;BME280;5648;43.628;22.684;2022-10-16T06:53:21;96183.44;;;9.21;100.00
11184;BME280;5648;43.628;22.684;2022-10-16T06:55:47;96189.31;;;9.32;100.00
11184;BME280;5648;43.628;22.684;2022-10-16T06:58:12;96182.53;;;9.37;100.00
11184;BME280;5648;43.628;22.684;2022-10-16T07:00:38;96187.25;;;9.50;100.00
11184;BME280;5648;43.628;22.684;2022-10-16T07:03:03;96179.97;;;9.52;100.00
11184;BME280;5648;43.628;22.684;2022-10-16T07:05:28;96192.13;;;9.61;100.00
11184;BME280;5648;43.628;22.684;2022-10-16T07:07:54;96193.38;;;9.73;100.00
11184;BME280;5648;43.628;22.684;2022-10-16T07:10:19;96193.19;;;9.75;100.00
11184;BME280;5648;43.628;22.684;2022-10-16T07:12:45;96184.88;;;9.86;100.00
11184;BME280;5648;43.628;22.684;2022-10-16T07:15:10;96195.19;;;9.96;100.00
11184;BME280;5648;43.628;22.684;2022-10-16T07:17:37;96197.00;;;9.95;100.00
11184;BME280;5648;43.628;22.684;2022-10-16T07:20:03;96193.94;;;10.06;100.00
11184;BME280;5648;43.628;22.684;2022-10-16T07:22:28;96198.88;;;10.32;100.00
11184;BME280;5648;43.628;22.684;2022-10-16T07:24:54;96196.06;;;10.34;100.00
11184;BME280;5648;43.628;22.684;2022-10-16T07:27:19;96192.06;;;10.38;100.00
11184;BME280;5648;43.628;22.684;2022-10-16T07:29:47;96199.69;;;10.56;100.00
11184;BME280;5648;43.628;22.684;2022-10-16T07:32:12;96192.72;;;10.55;100.00
11184;BME280;5648;43.628;22.684;2022-10-16T07:34:38;96195.75;;;10.66;100.00
11184;BME280;5648;43.628;22.684;2022-10-16T07:37:04;96211.72;;;10.73;100.00
11184;BME280;5648;43.628;22.684;2022-10-16T07:39:30;96203.34;;;10.84;100.00
11184;BME280;5648;43.628;22.684;2022-10-16T07:41:55;96206.88;;;10.91;100.00
11184;BME280;5648;43.628;22.684;2022-10-16T07:44:21;96199.88;;;11.13;100.00
11184;BME280;5648;43.628;22.684;2022-10-16T07:46:47;96196.75;;;11.10;100.00
11184;BME280;5648;43.628;22.684;2022-10-16T07:49:12;96210.97;;;11.23;100.00
11184;BME280;5648;43.628;22.684;2022-10-16T07:51:38;96205.41;;;11.33;100.00
11184;BME280;5648;43.628;22.684;2022-10-16T07:54:04;96200.91;;;11.48;100.00
11184;BME280;5648;43.628;22.684;2022-10-16T07:56:31;96211.59;;;11.55;100.00
11184;BME280;5648;43.628;22.684;2022-10-16T07:58:57;96216.19;;;11.68;100.00
11184;BME280;5648;43.628;22.684;2022-10-16T08:01:23;96220.03;;;11.80;100.00
11184;BME280;5648;43.628;22.684;2022-10-16T08:03:50;96200.59;;;11.94;100.00
11184;BME280;5648;43.628;22.684;2022-10-16T08:06:17;96209.66;;;12.00;100.00
11184;BME280;5648;43.628;22.684;2022-10-16T08:08:43;96213.88;;;12.15;100.00
11184;BME280;5648;43.628;22.684;2022-10-16T08:11:09;96213.00;;;12.30;100.00
11184;BME280;5648;43.628;22.684;2022-10-16T08:13:35;96214.50;;;12.39;100.00
11184;BME280;5648;43.628;22.684;2022-10-16T08:16:01;96211.59;;;12.34;100.00
11184;BME280;5648;43.628;22.684;2022-10-16T08:18:26;96212.09;;;12.44;100.00
11184;BME280;5648;43.628;22.684;2022-10-16T08:20:59;96211.38;;;12.57;100.00
11184;BME280;5648;43.628;22.684;2022-10-16T08:23:26;96227.94;;;12.65;100.00
11184;BME280;5648;43.628;22.684;2022-10-16T08:25:55;96213.25;;;12.63;100.00
11184;BME280;5648;43.628;22.684;2022-10-16T08:28:21;96215.97;;;12.69;100.00
11184;BME280;5648;43.628;22.684;2022-10-16T08:30:47;96221.94;;;12.78;100.00
11184;BME280;5648;43.628;22.684;2022-10-16T08:33:13;96226.09;;;12.94;100.00
11184;BME280;5648;43.628;22.684;2022-10-16T08:35:39;96216.50;;;12.93;100.00
11184;BME280;5648;43.628;22.684;2022-10-16T08:38:05;96225.56;;;13.05;100.00
11184;BME280;5648;43.628;22.684;2022-10-16T08:40:32;96223.16;;;13.10;100.00
11184;BME280;5648;43.628;22.684;2022-10-16T08:43:21;96226.09;;;13.22;100.00
11184;BME280;5648;43.628;22.684;2022-10-16T08:46:19;96228.19;;;13.26;100.00
11184;BME280;5648;43.628;22.684;2022-10-16T08:48:51;96225.13;;;13.29;100.00
11184;BME280;5648;43.628;22.684;2022-10-16T08:51:27;96234.34;;;13.33;100.00
11184;BME280;5648;43.628;22.684;2022-10-16T08:56:46;96225.41;;;13.48;100.00
11184;BME280;5648;43.628;22.684;2022-10-16T08:59:14;96230.31;;;13.51;100.00
11184;BME280;5648;43.628;22.684;2022-10-16T09:01:44;96242.03;;;13.63;100.00
11184;BME280;5648;43.628;22.684;2022-10-16T09:07:04;96240.19;;;13.57;100.00
11184;BME280;5648;43.628;22.684;2022-10-16T09:18:12;96245.41;;;13.85;100.00
11184;BME280;5648;43.628;22.684;2022-10-16T09:23:25;96241.09;;;13.90;100.00
11184;BME280;5648;43.628;22.684;2022-10-16T09:25:51;96235.59;;;13.92;100.00
11184;BME280;5648;43.628;22.684;2022-10-16T09:28:18;96242.41;;;14.08;100.00
11184;BME280;5648;43.628;22.684;2022-10-16T09:30:45;96246.72;;;14.22;100.00
11184;BME280;5648;43.628;22.684;2022-10-16T09:33:12;96243.03;;;14.23;100.00
11184;BME280;5648;43.628;22.684;2022-10-16T09:35:43;96244.06;;;14.35;100.00
11184;BME280;5648;43.628;22.684;2022-10-16T09:38:21;96237.50;;;14.18;100.00
11184;BME280;5648;43.628;22.684;2022-10-16T09:40:47;96236.84;;;14.03;100.00
11184;BME280;5648;43.628;22.684;2022-10-16T09:46:08;96242.88;;;14.44;100.00
11184;BME280;5648;43.628;22.684;2022-10-16T09:48:42;96234.44;;;14.34;100.00
11184;BME280;5648;43.628;22.684;2022-10-16T09:51:29;96233.66;;;14.40;100.00
11184;BME280;5648;43.628;22.684;2022-10-16T09:54:21;96241.06;;;14.51;100.00
11184;BME280;5648;43.628;22.684;2022-10-16T09:57:12;96248.63;;;14.68;100.00
11184;BME280;5648;43.628;22.684;2022-10-16T09:59:50;96246.59;;;14.70;100.00
11184;BME280;5648;43.628;22.684;2022-10-16T10:02:19;96250.06;;;14.83;100.00
11184;BME280;5648;43.628;22.684;2022-10-16T10:04:53;96254.56;;;14.63;100.00
11184;BME280;5648;43.628;22.684;2022-10-16T10:07:33;96248.38;;;14.43;100.00
11184;BME280;5648;43.628;22.684;2022-10-16T10:10:04;96249.06;;;14.65;100.00
11184;BME280;5648;43.628;22.684;2022-10-16T10:12:31;96248.22;;;14.84;100.00
11184;BME280;5648;43.628;22.684;2022-10-16T10:15:06;96248.22;;;14.84;100.00
11184;BME280;5648;43.628;22.684;2022-10-16T10:17:32;96251.91;;;14.96;100.00
11184;BME280;5648;43.628;22.684;2022-10-16T10:20:21;96238.41;;;14.65;100.00
11184;BME280;5648;43.628;22.684;2022-10-16T10:22:48;96244.94;;;14.75;100.00
11184;BME280;5648;43.628;22.684;2022-10-16T10:27:52;96238.56;;;15.09;100.00
11184;BME280;5648;43.628;22.684;2022-10-16T10:30:24;96237.31;;;15.25;100.00
11184;BME280;5648;43.628;22.684;2022-10-16T10:46:14;96226.47;;;15.20;100.00
11184;BME280;5648;43.628;22.684;2022-10-16T10:49:06;96221.50;;;15.37;100.00
11184;BME280;5648;43.628;22.684;2022-10-16T10:57:15;96208.69;;;15.59;98.44
11184;BME280;5648;43.628;22.684;2022-10-16T11:03:35;96209.72;;;15.58;91.41
11184;BME280;5648;43.628;22.684;2022-10-16T11:05:33;96200.81;;;15.84;90.35
11184;BME280;5648;43.628;22.684;2022-10-16T11:08:08;96196.94;;;15.80;84.76
11184;BME280;5648;43.628;22.684;2022-10-16T11:10:56;96199.72;;;15.98;85.09
11184;BME280;5648;43.628;22.684;2022-10-16T11:16:33;96188.97;;;16.11;79.46
11184;BME280;5648;43.628;22.684;2022-10-16T11:19:04;96198.50;;;15.94;78.47
11184;BME280;5648;43.628;22.684;2022-10-16T11:21:54;96188.38;;;16.09;79.80
11184;BME280;5648;43.628;22.684;2022-10-16T11:26:56;96186.03;;;16.19;74.31
11184;BME280;5648;43.628;22.684;2022-10-16T11:29:28;96192.72;;;16.28;73.98
11184;BME280;5648;43.628;22.684;2022-10-16T11:32:05;96190.13;;;16.22;70.60
11184;BME280;5648;43.628;22.684;2022-10-16T11:34:35;96187.13;;;16.12;73.14
11184;BME280;5648;43.628;22.684;2022-10-16T11:37:24;96195.78;;;16.07;71.72
11184;BME280;5648;43.628;22.684;2022-10-16T11:39:54;96189.88;;;15.98;70.60
11184;BME280;5648;43.628;22.684;2022-10-16T11:42:29;96201.56;;;15.97;71.70
11184;BME280;5648;43.628;22.684;2022-10-16T11:47:35;96201.34;;;16.30;69.85
11184;BME280;5648;43.628;22.684;2022-10-16T11:52:46;96199.38;;;16.44;67.40
11184;BME280;5648;43.628;22.684;2022-10-16T11:55:21;96209.53;;;16.60;66.66
11184;BME280;5648;43.628;22.684;2022-10-16T11:58:02;96205.72;;;16.50;64.74
11184;BME280;5648;43.628;22.684;2022-10-16T12:06:13;96212.34;;;16.72;62.96
11184;BME280;5648;43.628;22.684;2022-10-16T12:08:40;96210.34;;;16.68;61.79
11184;BME280;5648;43.628;22.684;2022-10-16T12:16:51;96206.19;;;16.72;62.25
11184;BME280;5648;43.628;22.684;2022-10-16T12:19:17;96211.63;;;16.83;63.31
11184;BME280;5648;43.628;22.684;2022-10-16T12:21:44;96210.44;;;16.79;61.11
11184;BME280;5648;43.628;22.684;2022-10-16T12:24:41;96198.44;;;16.63;62.67
11184;BME280;5648;43.628;22.684;2022-10-16T12:27:31;96198.25;;;16.58;61.72
11184;BME280;5648;43.628;22.684;2022-10-16T12:30:02;96191.53;;;16.81;63.54
11184;BME280;5648;43.628;22.684;2022-10-16T12:34:59;96196.53;;;16.96;61.54
11184;BME280;5648;43.628;22.684;2022-10-16T12:37:34;96197.81;;;17.11;62.32
11184;BME280;5648;43.628;22.684;2022-10-16T12:40:13;96194.19;;;17.24;61.70
11184;BME280;5648;43.628;22.684;2022-10-16T12:42:39;96187.19;;;17.23;59.95
11184;BME280;5648;43.628;22.684;2022-10-16T12:45:28;96199.00;;;17.34;59.84
11184;BME280;5648;43.628;22.684;2022-10-16T12:47:55;96187.56;;;17.27;59.07
11184;BME280;5648;43.628;22.684;2022-10-16T12:50:37;96188.53;;;17.32;59.37
11184;BME280;5648;43.628;22.684;2022-10-16T12:53:18;96195.88;;;17.37;58.90
11184;BME280;5648;43.628;22.684;2022-10-16T12:56:12;96192.53;;;17.41;61.12
11184;BME280;5648;43.628;22.684;2022-10-16T12:59:09;96194.72;;;17.33;59.13
11184;BME280;5648;43.628;22.684;2022-10-16T13:01:42;96206.63;;;17.30;58.23
11184;BME280;5648;43.628;22.684;2022-10-16T13:07:04;96197.88;;;17.05;59.34
11184;BME280;5648;43.628;22.684;2022-10-16T13:18:05;96215.69;;;17.11;59.29
11184;BME280;5648;43.628;22.684;2022-10-16T13:20:55;96196.97;;;17.11;61.09
11184;BME280;5648;43.628;22.684;2022-10-16T13:26:13;96206.22;;;17.33;60.88
11184;BME280;5648;43.628;22.684;2022-10-16T13:28:41;96201.69;;;17.34;59.74
11184;BME280;5648;43.628;22.684;2022-10-16T13:31:15;96196.72;;;17.19;59.82
11184;BME280;5648;43.628;22.684;2022-10-16T13:33:46;96205.22;;;17.09;59.66
11184;BME280;5648;43.628;22.684;2022-10-16T13:36:25;96202.31;;;17.11;60.27
11184;BME280;5648;43.628;22.684;2022-10-16T13:39:20;96218.31;;;17.17;61.76
11184;BME280;5648;43.628;22.684;2022-10-16T13:42:09;96210.34;;;17.29;61.12
11184;BME280;5648;43.628;22.684;2022-10-16T13:44:44;96214.69;;;17.48;60.80
11184;BME280;5648;43.628;22.684;2022-10-16T13:47:16;96226.38;;;17.29;59.95
11184;BME280;5648;43.628;22.684;2022-10-16T13:49:42;96211.38;;;17.10;60.41
11184;BME280;5648;43.628;22.684;2022-10-16T13:52:20;96222.81;;;17.17;61.27
11184;BME280;5648;43.628;22.684;2022-10-16T13:54:46;96219.03;;;17.06;61.15
11184;BME280;5648;43.628;22.684;2022-10-16T13:57:14;96217.31;;;17.12;60.27
11184;BME280;5648;43.628;22.684;2022-10-16T13:59:40;96218.25;;;16.99;60.33
11184;BME280;5648;43.628;22.684;2022-10-16T14:02:37;96219.63;;;17.08;60.32
11184;BME280;5648;43.628;22.684;2022-10-16T14:05:08;96218.59;;;17.09;60.22
11184;BME280;5648;43.628;22.684;2022-10-16T14:07:36;96216.72;;;17.10;59.74
11184;BME280;5648;43.628;22.684;2022-10-16T14:10:17;96222.78;;;16.99;60.52
11184;BME280;5648;43.628;22.684;2022-10-16T14:12:45;96223.69;;;16.92;61.01
11184;BME280;5648;43.628;22.684;2022-10-16T14:15:19;96203.47;;;16.78;61.49
11184;BME280;5648;43.628;22.684;2022-10-16T14:17:48;96225.91;;;16.96;62.63
11184;BME280;5648;43.628;22.684;2022-10-16T14:20:15;96229.94;;;17.05;62.30
11184;BME280;5648;43.628;22.684;2022-10-16T14:22:41;96232.66;;;16.98;62.14
11184;BME280;5648;43.628;22.684;2022-10-16T14:25:33;96230.47;;;16.88;61.91
11184;BME280;5648;43.628;22.684;2022-10-16T14:30:34;96226.28;;;16.99;63.01
11184;BME280;5648;43.628;22.684;2022-10-16T14:33:03;96225.47;;;16.99;63.73
11184;BME280;5648;43.628;22.684;2022-10-16T14:35:30;96226.34;;;16.92;63.78
11184;BME280;5648;43.628;22.684;2022-10-16T14:37:57;96228.03;;;16.87;62.63
11184;BME280;5648;43.628;22.684;2022-10-16T14:40:29;96226.28;;;16.74;62.50
11184;BME280;5648;43.628;22.684;2022-10-16T14:42:55;96229.84;;;16.68;64.58
11184;BME280;5648;43.628;22.684;2022-10-16T14:45:24;96235.69;;;16.52;63.13
11184;BME280;5648;43.628;22.684;2022-10-16T14:47:57;96236.97;;;16.43;62.88
11184;BME280;5648;43.628;22.684;2022-10-16T14:50:23;96234.69;;;16.46;63.11
11184;BME280;5648;43.628;22.684;2022-10-16T14:52:49;96247.75;;;16.29;62.79
11184;BME280;5648;43.628;22.684;2022-10-16T14:55:15;96241.69;;;16.47;63.15
11184;BME280;5648;43.628;22.684;2022-10-16T14:57:40;96242.47;;;16.23;62.77
11184;BME280;5648;43.628;22.684;2022-10-16T15:00:14;96240.78;;;16.28;62.79
11184;BME280;5648;43.628;22.684;2022-10-16T15:02:41;96246.78;;;16.17;62.33